sensor_id;sensor_type;location;lat;lon;timestamp;P1;durP1;ratioP1;P2;durP2;ratioP2
27670;SDS011;15077;49.704;9.908;2023-05-07T00:00:27;1.85;;;0.80;;
27670;SDS011;15077;49.704;9.908;2023-05-07T00:02:54;1.88;;;1.10;;
27670;SDS011;15077;49.704;9.908;2023-05-07T00:05:20;1.25;;;0.80;;
27670;SDS011;15077;49.704;9.908;2023-05-07T00:07:46;1.10;;;0.70;;
27670;SDS011;15077;49.704;9.908;2023-05-07T00:10:12;1.30;;;1.00;;
27670;SDS011;15077;49.704;9.908;2023-05-07T00:12:38;1.20;;;0.93;;
27670;SDS011;15077;49.704;9.908;2023-05-07T00:15:06;1.25;;;0.90;;
27670;SDS011;15077;49.704;9.908;2023-05-07T00:17:32;1.35;;;1.17;;
27670;SDS011;15077;49.704;9.908;2023-05-07T00:19:58;1.45;;;0.77;;
27670;SDS011;15077;49.704;9.908;2023-05-07T00:22:24;1.27;;;1.08;;
27670;SDS011;15077;49.704;9.908;2023-05-07T00:24:51;0.85;;;0.77;;
27670;SDS011;15077;49.704;9.908;2023-05-07T00:27:17;1.88;;;0.98;;
27670;SDS011;15077;49.704;9.908;2023-05-07T00:29:43;1.10;;;0.70;;
27670;SDS011;15077;49.704;9.908;2023-05-07T00:32:12;1.23;;;0.60;;
27670;SDS011;15077;49.704;9.908;2023-05-07T00:34:37;2.05;;;0.90;;
27670;SDS011;15077;49.704;9.908;2023-05-07T00:37:05;1.23;;;0.85;;
27670;SDS011;15077;49.704;9.908;2023-05-07T00:39:32;1.05;;;0.80;;
27670;SDS011;15077;49.704;9.908;2023-05-07T00:41:59;2.05;;;0.70;;
27670;SDS011;15077;49.704;9.908;2023-05-07T00:44:26;1.23;;;1.00;;
27670;SDS011;15077;49.704;9.908;2023-05-07T00:46:52;2.83;;;1.00;;
27670;SDS011;15077;49.704;9.908;2023-05-07T00:49:18;1.83;;;1.10;;
27670;SDS011;15077;49.704;9.908;2023-05-07T00:51:45;0.90;;;0.80;;
27670;SDS011;15077;49.704;9.908;2023-05-07T00:54:11;1.30;;;0.70;;
27670;SDS011;15077;49.704;9.908;2023-05-07T00:56:39;0.85;;;0.80;;
27670;SDS011;15077;49.704;9.908;2023-05-07T00:59:06;1.45;;;0.90;;
27670;SDS011;15077;49.704;9.908;2023-05-07T01:01:34;1.80;;;1.10;;
27670;SDS011;15077;49.704;9.908;2023-05-07T01:04:05;0.80;;;0.80;;
27670;SDS011;15077;49.704;9.908;2023-05-07T01:06:32;3.67;;;1.05;;
27670;SDS011;15077;49.704;9.908;2023-05-07T01:09:00;0.82;;;0.80;;
27670;SDS011;15077;49.704;9.908;2023-05-07T01:11:29;1.25;;;0.93;;
27670;SDS011;15077;49.704;9.908;2023-05-07T01:13:55;2.47;;;0.93;;
27670;SDS011;15077;49.704;9.908;2023-05-07T01:16:25;3.33;;;1.00;;
27670;SDS011;15077;49.704;9.908;2023-05-07T01:18:53;1.38;;;1.08;;
27670;SDS011;15077;49.704;9.908;2023-05-07T01:21:20;1.60;;;0.95;;
27670;SDS011;15077;49.704;9.908;2023-05-07T01:23:53;2.25;;;1.63;;
27670;SDS011;15077;49.704;9.908;2023-05-07T01:26:20;2.20;;;1.27;;
27670;SDS011;15077;49.704;9.908;2023-05-07T01:28:49;1.88;;;1.10;;
27670;SDS011;15077;49.704;9.908;2023-05-07T01:31:17;1.35;;;1.13;;
27670;SDS011;15077;49.704;9.908;2023-05-07T01:33:45;2.28;;;1.30;;
27670;SDS011;15077;49.704;9.908;2023-05-07T01:36:14;2.35;;;1.30;;
27670;SDS011;15077;49.704;9.908;2023-05-07T01:38:42;1.20;;;0.80;;
27670;SDS011;15077;49.704;9.908;2023-05-07T01:41:16;1.80;;;1.10;;
27670;SDS011;15077;49.704;9.908;2023-05-07T01:43:43;1.90;;;1.10;;
27670;SDS011;15077;49.704;9.908;2023-05-07T01:46:12;1.95;;;1.17;;
27670;SDS011;15077;49.704;9.908;2023-05-07T01:48:40;2.53;;;1.15;;
27670;SDS011;15077;49.704;9.908;2023-05-07T01:51:10;1.55;;;1.13;;
27670;SDS011;15077;49.704;9.908;2023-05-07T01:53:38;1.80;;;1.02;;
27670;SDS011;15077;49.704;9.908;2023-05-07T01:56:07;1.50;;;1.02;;
27670;SDS011;15077;49.704;9.908;2023-05-07T01:58:34;2.88;;;1.55;;
27670;SDS011;15077;49.704;9.908;2023-05-07T02:01:00;1.83;;;1.13;;
27670;SDS011;15077;49.704;9.908;2023-05-07T02:03:26;1.83;;;1.35;;
27670;SDS011;15077;49.704;9.908;2023-05-07T02:05:52;1.33;;;1.23;;
27670;SDS011;15077;49.704;9.908;2023-05-07T02:08:25;1.27;;;1.00;;
27670;SDS011;15077;49.704;9.908;2023-05-07T02:10:52;1.33;;;0.90;;
27670;SDS011;15077;49.704;9.908;2023-05-07T02:13:19;1.33;;;0.90;;
27670;SDS011;15077;49.704;9.908;2023-05-07T02:15:47;1.70;;;1.30;;
27670;SDS011;15077;49.704;9.908;2023-05-07T02:18:16;1.20;;;0.88;;
27670;SDS011;15077;49.704;9.908;2023-05-07T02:20:43;1.73;;;0.90;;
27670;SDS011;15077;49.704;9.908;2023-05-07T02:23:09;1.33;;;1.10;;
27670;SDS011;15077;49.704;9.908;2023-05-07T02:25:34;1.77;;;1.10;;
27670;SDS011;15077;49.704;9.908;2023-05-07T02:28:00;0.95;;;0.80;;
27670;SDS011;15077;49.704;9.908;2023-05-07T02:30:26;1.48;;;0.77;;
27670;SDS011;15077;49.704;9.908;2023-05-07T02:32:54;1.05;;;0.70;;
27670;SDS011;15077;49.704;9.908;2023-05-07T02:35:20;1.20;;;0.98;;
27670;SDS011;15077;49.704;9.908;2023-05-07T02:37:46;1.05;;;0.77;;
27670;SDS011;15077;49.704;9.908;2023-05-07T02:40:13;1.60;;;1.00;;
27670;SDS011;15077;49.704;9.908;2023-05-07T02:42:40;1.40;;;0.82;;
27670;SDS011;15077;49.704;9.908;2023-05-07T02:45:07;1.50;;;0.93;;
27670;SDS011;15077;49.704;9.908;2023-05-07T02:47:35;1.58;;;1.15;;
27670;SDS011;15077;49.704;9.908;2023-05-07T02:50:01;1.58;;;1.00;;
27670;SDS011;15077;49.704;9.908;2023-05-07T02:52:27;1.10;;;0.90;;
27670;SDS011;15077;49.704;9.908;2023-05-07T02:54:55;1.48;;;0.82;;
27670;SDS011;15077;49.704;9.908;2023-05-07T02:57:22;1.10;;;0.90;;
27670;SDS011;15077;49.704;9.908;2023-05-07T02:59:50;0.90;;;0.68;;
27670;SDS011;15077;49.704;9.908;2023-05-07T03:02:16;1.02;;;0.80;;
27670;SDS011;15077;49.704;9.908;2023-05-07T03:04:47;0.90;;;0.52;;
27670;SDS011;15077;49.704;9.908;2023-05-07T03:07:13;1.02;;;0.88;;
27670;SDS011;15077;49.704;9.908;2023-05-07T03:09:39;0.80;;;0.70;;
27670;SDS011;15077;49.704;9.908;2023-05-07T03:12:06;0.82;;;0.60;;
27670;SDS011;15077;49.704;9.908;2023-05-07T03:14:32;0.88;;;0.60;;
27670;SDS011;15077;49.704;9.908;2023-05-07T03:16:58;2.17;;;1.10;;
27670;SDS011;15077;49.704;9.908;2023-05-07T03:19:26;0.95;;;0.70;;
27670;SDS011;15077;49.704;9.908;2023-05-07T03:21:53;1.38;;;0.88;;
27670;SDS011;15077;49.704;9.908;2023-05-07T03:24:21;0.77;;;0.68;;
27670;SDS011;15077;49.704;9.908;2023-05-07T03:26:47;1.35;;;0.60;;
27670;SDS011;15077;49.704;9.908;2023-05-07T03:29:14;0.80;;;0.60;;
27670;SDS011;15077;49.704;9.908;2023-05-07T03:31:41;1.58;;;0.80;;
27670;SDS011;15077;49.704;9.908;2023-05-07T03:34:07;1.45;;;0.90;;
27670;SDS011;15077;49.704;9.908;2023-05-07T03:36:33;1.30;;;1.00;;
27670;SDS011;15077;49.704;9.908;2023-05-07T03:39:01;1.20;;;0.90;;
27670;SDS011;15077;49.704;9.908;2023-05-07T03:41:28;1.00;;;0.90;;
27670;SDS011;15077;49.704;9.908;2023-05-07T03:43:54;2.05;;;0.93;;
27670;SDS011;15077;49.704;9.908;2023-05-07T03:46:21;1.80;;;1.02;;
27670;SDS011;15077;49.704;9.908;2023-05-07T03:48:46;0.95;;;0.70;;
27670;SDS011;15077;49.704;9.908;2023-05-07T03:51:12;2.33;;;1.15;;
27670;SDS011;15077;49.704;9.908;2023-05-07T03:53:39;1.63;;;1.10;;
27670;SDS011;15077;49.704;9.908;2023-05-07T03:56:05;1.10;;;0.80;;
27670;SDS011;15077;49.704;9.908;2023-05-07T03:58:31;1.38;;;0.90;;
27670;SDS011;15077;49.704;9.908;2023-05-07T04:00:58;1.30;;;0.90;;
27670;SDS011;15077;49.704;9.908;2023-05-07T04:03:24;1.50;;;1.02;;
27670;SDS011;15077;49.704;9.908;2023-05-07T04:05:50;1.10;;;1.00;;
27670;SDS011;15077;49.704;9.908;2023-05-07T04:08:16;1.13;;;0.80;;
27670;SDS011;15077;49.704;9.908;2023-05-07T04:10:41;1.33;;;1.23;;
27670;SDS011;15077;49.704;9.908;2023-05-07T04:13:07;1.25;;;0.93;;
27670;SDS011;15077;49.704;9.908;2023-05-07T04:15:33;1.90;;;1.25;;
27670;SDS011;15077;49.704;9.908;2023-05-07T04:18:00;2.70;;;1.75;;
27670;SDS011;15077;49.704;9.908;2023-05-07T04:20:25;1.67;;;1.27;;
27670;SDS011;15077;49.704;9.908;2023-05-07T04:22:51;1.50;;;1.30;;
27670;SDS011;15077;49.704;9.908;2023-05-07T04:25:17;1.52;;;1.38;;
27670;SDS011;15077;49.704;9.908;2023-05-07T04:27:43;1.90;;;1.30;;
27670;SDS011;15077;49.704;9.908;2023-05-07T04:30:08;1.92;;;1.10;;
27670;SDS011;15077;49.704;9.908;2023-05-07T04:32:35;1.40;;;1.30;;
27670;SDS011;15077;49.704;9.908;2023-05-07T04:35:02;2.45;;;1.30;;
27670;SDS011;15077;49.704;9.908;2023-05-07T04:37:28;2.45;;;1.58;;
27670;SDS011;15077;49.704;9.908;2023-05-07T04:39:54;1.92;;;1.42;;
27670;SDS011;15077;49.704;9.908;2023-05-07T04:42:20;1.25;;;1.10;;
27670;SDS011;15077;49.704;9.908;2023-05-07T04:44:45;2.17;;;1.60;;
27670;SDS011;15077;49.704;9.908;2023-05-07T04:47:11;1.77;;;1.50;;
27670;SDS011;15077;49.704;9.908;2023-05-07T04:49:40;2.45;;;1.35;;
27670;SDS011;15077;49.704;9.908;2023-05-07T04:52:05;2.22;;;1.25;;
27670;SDS011;15077;49.704;9.908;2023-05-07T04:54:31;2.30;;;1.63;;
27670;SDS011;15077;49.704;9.908;2023-05-07T04:56:57;2.25;;;1.77;;
27670;SDS011;15077;49.704;9.908;2023-05-07T04:59:23;2.63;;;1.80;;
27670;SDS011;15077;49.704;9.908;2023-05-07T05:01:48;2.22;;;1.50;;
27670;SDS011;15077;49.704;9.908;2023-05-07T05:04:14;1.75;;;1.40;;
27670;SDS011;15077;49.704;9.908;2023-05-07T05:06:40;3.42;;;2.10;;
27670;SDS011;15077;49.704;9.908;2023-05-07T05:09:06;1.95;;;1.70;;
27670;SDS011;15077;49.704;9.908;2023-05-07T05:11:31;2.53;;;1.65;;
27670;SDS011;15077;49.704;9.908;2023-05-07T05:13:58;2.22;;;1.83;;
27670;SDS011;15077;49.704;9.908;2023-05-07T05:16:25;2.25;;;1.83;;
27670;SDS011;15077;49.704;9.908;2023-05-07T05:18:51;2.50;;;1.80;;
27670;SDS011;15077;49.704;9.908;2023-05-07T05:21:17;3.40;;;2.15;;
27670;SDS011;15077;49.704;9.908;2023-05-07T05:23:43;3.05;;;2.28;;
27670;SDS011;15077;49.704;9.908;2023-05-07T05:26:08;2.85;;;2.45;;
27670;SDS011;15077;49.704;9.908;2023-05-07T05:28:34;2.80;;;2.17;;
27670;SDS011;15077;49.704;9.908;2023-05-07T05:31:00;3.33;;;2.70;;
27670;SDS011;15077;49.704;9.908;2023-05-07T05:33:26;2.63;;;2.42;;
27670;SDS011;15077;49.704;9.908;2023-05-07T05:35:53;3.38;;;2.47;;
27670;SDS011;15077;49.704;9.908;2023-05-07T05:38:19;2.67;;;2.17;;
27670;SDS011;15077;49.704;9.908;2023-05-07T05:40:46;3.30;;;2.92;;
27670;SDS011;15077;49.704;9.908;2023-05-07T05:43:12;2.63;;;2.30;;
27670;SDS011;15077;49.704;9.908;2023-05-07T05:45:38;3.47;;;2.92;;
27670;SDS011;15077;49.704;9.908;2023-05-07T05:48:05;6.32;;;2.97;;
27670;SDS011;15077;49.704;9.908;2023-05-07T05:50:31;3.47;;;3.00;;
27670;SDS011;15077;49.704;9.908;2023-05-07T05:52:56;9.57;;;3.65;;
27670;SDS011;15077;49.704;9.908;2023-05-07T05:55:22;3.50;;;3.20;;
27670;SDS011;15077;49.704;9.908;2023-05-07T05:57:48;5.40;;;3.75;;
27670;SDS011;15077;49.704;9.908;2023-05-07T06:00:15;4.72;;;3.78;;
27670;SDS011;15077;49.704;9.908;2023-05-07T06:02:41;3.63;;;3.30;;
27670;SDS011;15077;49.704;9.908;2023-05-07T06:05:10;4.20;;;3.53;;
27670;SDS011;15077;49.704;9.908;2023-05-07T06:07:36;3.88;;;3.53;;
27670;SDS011;15077;49.704;9.908;2023-05-07T06:10:01;4.25;;;3.67;;
27670;SDS011;15077;49.704;9.908;2023-05-07T06:12:27;5.10;;;4.60;;
27670;SDS011;15077;49.704;9.908;2023-05-07T06:14:53;5.28;;;4.55;;
27670;SDS011;15077;49.704;9.908;2023-05-07T06:17:18;5.78;;;5.18;;
27670;SDS011;15077;49.704;9.908;2023-05-07T06:19:45;6.10;;;4.40;;
27670;SDS011;15077;49.704;9.908;2023-05-07T06:22:10;6.13;;;4.93;;
27670;SDS011;15077;49.704;9.908;2023-05-07T06:24:36;5.97;;;4.88;;
27670;SDS011;15077;49.704;9.908;2023-05-07T06:27:02;5.00;;;4.47;;
27670;SDS011;15077;49.704;9.908;2023-05-07T06:29:28;8.38;;;6.90;;
27670;SDS011;15077;49.704;9.908;2023-05-07T06:31:56;6.28;;;5.68;;
27670;SDS011;15077;49.704;9.908;2023-05-07T06:34:31;6.78;;;6.07;;
27670;SDS011;15077;49.704;9.908;2023-05-07T06:36:57;9.02;;;6.82;;
27670;SDS011;15077;49.704;9.908;2023-05-07T06:39:23;7.18;;;6.47;;
27670;SDS011;15077;49.704;9.908;2023-05-07T06:41:49;8.27;;;6.45;;
27670;SDS011;15077;49.704;9.908;2023-05-07T06:44:14;6.93;;;5.90;;
27670;SDS011;15077;49.704;9.908;2023-05-07T06:46:40;6.63;;;5.82;;
27670;SDS011;15077;49.704;9.908;2023-05-07T06:49:06;5.28;;;4.78;;
27670;SDS011;15077;49.704;9.908;2023-05-07T06:51:32;6.00;;;5.03;;
27670;SDS011;15077;49.704;9.908;2023-05-07T06:53:58;6.13;;;5.22;;
27670;SDS011;15077;49.704;9.908;2023-05-07T06:56:24;10.68;;;6.60;;
27670;SDS011;15077;49.704;9.908;2023-05-07T06:58:50;7.30;;;6.35;;
27670;SDS011;15077;49.704;9.908;2023-05-07T07:01:16;7.95;;;5.65;;
27670;SDS011;15077;49.704;9.908;2023-05-07T07:03:42;7.95;;;6.57;;
27670;SDS011;15077;49.704;9.908;2023-05-07T07:06:07;7.50;;;6.60;;
27670;SDS011;15077;49.704;9.908;2023-05-07T07:08:33;7.05;;;6.03;;
27670;SDS011;15077;49.704;9.908;2023-05-07T07:10:59;7.88;;;6.43;;
27670;SDS011;15077;49.704;9.908;2023-05-07T07:13:25;7.25;;;6.47;;
27670;SDS011;15077;49.704;9.908;2023-05-07T07:15:51;6.78;;;6.07;;
27670;SDS011;15077;49.704;9.908;2023-05-07T07:18:18;7.38;;;6.57;;
27670;SDS011;15077;49.704;9.908;2023-05-07T07:20:44;8.18;;;6.72;;
27670;SDS011;15077;49.704;9.908;2023-05-07T07:23:10;7.57;;;6.43;;
27670;SDS011;15077;49.704;9.908;2023-05-07T07:25:35;6.90;;;6.20;;
27670;SDS011;15077;49.704;9.908;2023-05-07T07:28:01;6.35;;;5.75;;
27670;SDS011;15077;49.704;9.908;2023-05-07T07:30:27;7.03;;;6.32;;
27670;SDS011;15077;49.704;9.908;2023-05-07T07:32:53;8.02;;;7.25;;
27670;SDS011;15077;49.704;9.908;2023-05-07T07:35:21;7.90;;;7.10;;
27670;SDS011;15077;49.704;9.908;2023-05-07T07:37:47;7.53;;;6.03;;
27670;SDS011;15077;49.704;9.908;2023-05-07T07:40:15;6.68;;;5.93;;
27670;SDS011;15077;49.704;9.908;2023-05-07T07:42:41;6.35;;;5.70;;
27670;SDS011;15077;49.704;9.908;2023-05-07T07:45:07;12.20;;;7.03;;
27670;SDS011;15077;49.704;9.908;2023-05-07T07:47:33;7.63;;;6.82;;
27670;SDS011;15077;49.704;9.908;2023-05-07T07:49:59;8.45;;;7.13;;
27670;SDS011;15077;49.704;9.908;2023-05-07T07:52:25;7.65;;;6.88;;
27670;SDS011;15077;49.704;9.908;2023-05-07T07:54:51;7.40;;;6.43;;
27670;SDS011;15077;49.704;9.908;2023-05-07T07:57:16;8.02;;;7.22;;
27670;SDS011;15077;49.704;9.908;2023-05-07T07:59:42;6.90;;;6.20;;
27670;SDS011;15077;49.704;9.908;2023-05-07T08:02:08;7.57;;;6.78;;
27670;SDS011;15077;49.704;9.908;2023-05-07T08:04:34;8.90;;;7.00;;
27670;SDS011;15077;49.704;9.908;2023-05-07T08:07:00;7.88;;;6.45;;
27670;SDS011;15077;49.704;9.908;2023-05-07T08:09:26;7.85;;;7.05;;
27670;SDS011;15077;49.704;9.908;2023-05-07T08:11:52;7.70;;;7.00;;
27670;SDS011;15077;49.704;9.908;2023-05-07T08:14:18;8.63;;;7.72;;
27670;SDS011;15077;49.704;9.908;2023-05-07T08:16:44;7.93;;;7.05;;
27670;SDS011;15077;49.704;9.908;2023-05-07T08:19:10;7.97;;;7.18;;
27670;SDS011;15077;49.704;9.908;2023-05-07T08:21:38;7.47;;;6.18;;
27670;SDS011;15077;49.704;9.908;2023-05-07T08:24:05;8.88;;;7.72;;
27670;SDS011;15077;49.704;9.908;2023-05-07T08:26:31;6.85;;;5.97;;
27670;SDS011;15077;49.704;9.908;2023-05-07T08:28:56;7.38;;;6.65;;
27670;SDS011;15077;49.704;9.908;2023-05-07T08:31:22;8.85;;;7.50;;
27670;SDS011;15077;49.704;9.908;2023-05-07T08:33:48;7.88;;;6.55;;
27670;SDS011;15077;49.704;9.908;2023-05-07T08:36:15;6.68;;;6.00;;
27670;SDS011;15077;49.704;9.908;2023-05-07T08:38:41;6.70;;;6.05;;
27670;SDS011;15077;49.704;9.908;2023-05-07T08:41:09;8.35;;;7.40;;
27670;SDS011;15077;49.704;9.908;2023-05-07T08:43:35;11.25;;;7.90;;
27670;SDS011;15077;49.704;9.908;2023-05-07T08:46:05;8.05;;;6.82;;
27670;SDS011;15077;49.704;9.908;2023-05-07T08:48:34;8.50;;;7.40;;
27670;SDS011;15077;49.704;9.908;2023-05-07T08:51:00;7.68;;;6.72;;
27670;SDS011;15077;49.704;9.908;2023-05-07T08:53:27;8.60;;;7.70;;
27670;SDS011;15077;49.704;9.908;2023-05-07T08:55:52;8.98;;;7.25;;
27670;SDS011;15077;49.704;9.908;2023-05-07T08:58:18;9.88;;;7.40;;
27670;SDS011;15077;49.704;9.908;2023-05-07T09:00:44;8.43;;;7.63;;
27670;SDS011;15077;49.704;9.908;2023-05-07T09:03:11;8.75;;;6.75;;
27670;SDS011;15077;49.704;9.908;2023-05-07T09:05:37;9.38;;;7.88;;
27670;SDS011;15077;49.704;9.908;2023-05-07T09:08:03;9.27;;;7.53;;
27670;SDS011;15077;49.704;9.908;2023-05-07T09:10:35;8.07;;;7.28;;
27670;SDS011;15077;49.704;9.908;2023-05-07T09:13:01;8.73;;;7.82;;
27670;SDS011;15077;49.704;9.908;2023-05-07T09:15:28;7.15;;;6.45;;
27670;SDS011;15077;49.704;9.908;2023-05-07T09:17:53;8.50;;;7.50;;
27670;SDS011;15077;49.704;9.908;2023-05-07T09:20:25;7.32;;;6.63;;
27670;SDS011;15077;49.704;9.908;2023-05-07T09:22:51;8.07;;;7.28;;
27670;SDS011;15077;49.704;9.908;2023-05-07T09:25:31;9.25;;;7.60;;
27670;SDS011;15077;49.704;9.908;2023-05-07T09:27:58;8.15;;;7.25;;
27670;SDS011;15077;49.704;9.908;2023-05-07T09:30:32;7.55;;;6.13;;
27670;SDS011;15077;49.704;9.908;2023-05-07T09:32:59;7.97;;;7.18;;
27670;SDS011;15077;49.704;9.908;2023-05-07T09:35:29;7.95;;;5.97;;
27670;SDS011;15077;49.704;9.908;2023-05-07T09:37:56;9.18;;;7.50;;
27670;SDS011;15077;49.704;9.908;2023-05-07T09:40:28;7.95;;;6.95;;
27670;SDS011;15077;49.704;9.908;2023-05-07T09:42:55;6.57;;;5.95;;
27670;SDS011;15077;49.704;9.908;2023-05-07T09:45:33;7.90;;;7.10;;
27670;SDS011;15077;49.704;9.908;2023-05-07T09:47:59;6.28;;;5.47;;
27670;SDS011;15077;49.704;9.908;2023-05-07T09:50:30;9.80;;;8.48;;
27670;SDS011;15077;49.704;9.908;2023-05-07T09:53:01;8.50;;;7.63;;
27670;SDS011;15077;49.704;9.908;2023-05-07T09:55:29;7.68;;;6.75;;
27670;SDS011;15077;49.704;9.908;2023-05-07T09:57:55;8.75;;;7.95;;
27670;SDS011;15077;49.704;9.908;2023-05-07T10:00:23;9.65;;;8.65;;
27670;SDS011;15077;49.704;9.908;2023-05-07T10:02:52;8.30;;;7.10;;
27670;SDS011;15077;49.704;9.908;2023-05-07T10:05:21;7.85;;;6.90;;
27670;SDS011;15077;49.704;9.908;2023-05-07T10:07:47;7.45;;;6.30;;
27670;SDS011;15077;49.704;9.908;2023-05-07T10:10:17;7.65;;;6.85;;
27670;SDS011;15077;49.704;9.908;2023-05-07T10:12:43;8.32;;;7.28;;
27670;SDS011;15077;49.704;9.908;2023-05-07T10:15:10;8.00;;;6.32;;
27670;SDS011;15077;49.704;9.908;2023-05-07T10:17:40;9.13;;;7.38;;
27670;SDS011;15077;49.704;9.908;2023-05-07T10:20:07;8.95;;;8.05;;
27670;SDS011;15077;49.704;9.908;2023-05-07T10:22:43;6.95;;;6.25;;
27670;SDS011;15077;49.704;9.908;2023-05-07T10:25:18;8.48;;;7.47;;
27670;SDS011;15077;49.704;9.908;2023-05-07T10:27:53;8.07;;;6.93;;
27670;SDS011;15077;49.704;9.908;2023-05-07T10:30:41;7.10;;;6.40;;
27670;SDS011;15077;49.704;9.908;2023-05-07T10:33:26;6.10;;;5.50;;
27670;SDS011;15077;49.704;9.908;2023-05-07T10:35:58;7.63;;;6.93;;
27670;SDS011;15077;49.704;9.908;2023-05-07T10:38:29;7.45;;;6.68;;
27670;SDS011;15077;49.704;9.908;2023-05-07T10:40:55;7.57;;;6.22;;
27670;SDS011;15077;49.704;9.908;2023-05-07T10:43:21;7.03;;;6.32;;
27670;SDS011;15077;49.704;9.908;2023-05-07T10:49:05;6.30;;;5.70;;
27670;SDS011;15077;49.704;9.908;2023-05-07T10:51:32;7.88;;;6.03;;
27670;SDS011;15077;49.704;9.908;2023-05-07T10:56:38;7.72;;;6.35;;
27670;SDS011;15077;49.704;9.908;2023-05-07T11:01:56;7.40;;;5.90;;
27670;SDS011;15077;49.704;9.908;2023-05-07T11:04:23;5.50;;;4.95;;
27670;SDS011;15077;49.704;9.908;2023-05-07T11:09:53;5.80;;;5.30;;
27670;SDS011;15077;49.704;9.908;2023-05-07T11:15:04;6.38;;;5.78;;
27670;SDS011;15077;49.704;9.908;2023-05-07T11:17:57;6.15;;;5.55;;
27670;SDS011;15077;49.704;9.908;2023-05-07T11:26:04;6.05;;;5.45;;
27670;SDS011;15077;49.704;9.908;2023-05-07T11:28:41;6.45;;;5.55;;
27670;SDS011;15077;49.704;9.908;2023-05-07T11:31:08;5.97;;;5.38;;
27670;SDS011;15077;49.704;9.908;2023-05-07T11:33:35;5.85;;;4.88;;
27670;SDS011;15077;49.704;9.908;2023-05-07T11:36:03;6.07;;;5.47;;
27670;SDS011;15077;49.704;9.908;2023-05-07T11:38:30;5.82;;;5.22;;
27670;SDS011;15077;49.704;9.908;2023-05-07T11:40:59;5.13;;;4.63;;
27670;SDS011;15077;49.704;9.908;2023-05-07T11:43:26;4.97;;;4.45;;
27670;SDS011;15077;49.704;9.908;2023-05-07T11:45:52;5.43;;;4.45;;
27670;SDS011;15077;49.704;9.908;2023-05-07T11:48:18;4.93;;;4.45;;
27670;SDS011;15077;49.704;9.908;2023-05-07T11:50:50;5.32;;;4.82;;
27670;SDS011;15077;49.704;9.908;2023-05-07T11:53:26;5.53;;;4.35;;
27670;SDS011;15077;49.704;9.908;2023-05-07T11:55:56;5.07;;;4.57;;
27670;SDS011;15077;49.704;9.908;2023-05-07T11:58:23;5.43;;;4.93;;
27670;SDS011;15077;49.704;9.908;2023-05-07T12:00:50;4.75;;;4.32;;
27670;SDS011;15077;49.704;9.908;2023-05-07T12:03:18;5.45;;;4.50;;
27670;SDS011;15077;49.704;9.908;2023-05-07T12:05:45;5.95;;;4.82;;
27670;SDS011;15077;49.704;9.908;2023-05-07T12:08:19;4.70;;;3.92;;
27670;SDS011;15077;49.704;9.908;2023-05-07T12:10:47;4.38;;;3.97;;
27670;SDS011;15077;49.704;9.908;2023-05-07T12:13:18;6.07;;;5.10;;
27670;SDS011;15077;49.704;9.908;2023-05-07T12:15:52;5.60;;;5.03;;
27670;SDS011;15077;49.704;9.908;2023-05-07T12:18:20;5.45;;;4.70;;
27670;SDS011;15077;49.704;9.908;2023-05-07T12:20:47;5.93;;;4.60;;
27670;SDS011;15077;49.704;9.908;2023-05-07T12:23:14;4.40;;;4.00;;
27670;SDS011;15077;49.704;9.908;2023-05-07T12:25:41;4.20;;;3.80;;
27670;SDS011;15077;49.704;9.908;2023-05-07T12:28:18;4.65;;;4.03;;
27670;SDS011;15077;49.704;9.908;2023-05-07T12:30:45;5.25;;;4.18;;
27670;SDS011;15077;49.704;9.908;2023-05-07T12:33:17;4.72;;;4.20;;
27670;SDS011;15077;49.704;9.908;2023-05-07T12:35:48;4.30;;;3.90;;
27670;SDS011;15077;49.704;9.908;2023-05-07T12:38:15;4.25;;;3.55;;
27670;SDS011;15077;49.704;9.908;2023-05-07T12:40:46;3.92;;;3.15;;
27670;SDS011;15077;49.704;9.908;2023-05-07T12:43:26;5.85;;;2.97;;
27670;SDS011;15077;49.704;9.908;2023-05-07T12:45:55;2.78;;;2.47;;
27670;SDS011;15077;49.704;9.908;2023-05-07T12:48:24;3.30;;;3.00;;
27670;SDS011;15077;49.704;9.908;2023-05-07T12:50:53;2.97;;;2.58;;
27670;SDS011;15077;49.704;9.908;2023-05-07T12:53:21;3.17;;;2.65;;
27670;SDS011;15077;49.704;9.908;2023-05-07T12:55:52;4.70;;;2.67;;
27670;SDS011;15077;49.704;9.908;2023-05-07T12:58:24;3.40;;;2.47;;
27670;SDS011;15077;49.704;9.908;2023-05-07T13:00:56;5.03;;;2.67;;
27670;SDS011;15077;49.704;9.908;2023-05-07T13:05:51;2.83;;;1.80;;
27670;SDS011;15077;49.704;9.908;2023-05-07T13:08:23;1.60;;;1.50;;
27670;SDS011;15077;49.704;9.908;2023-05-07T13:10:53;2.30;;;1.83;;
27670;SDS011;15077;49.704;9.908;2023-05-07T13:13:20;2.92;;;1.98;;
27670;SDS011;15077;49.704;9.908;2023-05-07T13:15:46;3.15;;;1.98;;
27670;SDS011;15077;49.704;9.908;2023-05-07T13:18:13;2.72;;;1.60;;
27670;SDS011;15077;49.704;9.908;2023-05-07T13:20:39;2.80;;;1.83;;
27670;SDS011;15077;49.704;9.908;2023-05-07T13:23:05;2.53;;;1.92;;
27670;SDS011;15077;49.704;9.908;2023-05-07T13:25:31;1.80;;;1.42;;
27670;SDS011;15077;49.704;9.908;2023-05-07T13:27:57;2.83;;;1.40;;
27670;SDS011;15077;49.704;9.908;2023-05-07T13:30:23;1.35;;;1.20;;
27670;SDS011;15077;49.704;9.908;2023-05-07T13:32:49;1.73;;;1.25;;
27670;SDS011;15077;49.704;9.908;2023-05-07T13:35:16;1.40;;;1.23;;
27670;SDS011;15077;49.704;9.908;2023-05-07T13:37:41;1.25;;;0.95;;
27670;SDS011;15077;49.704;9.908;2023-05-07T13:40:07;1.92;;;1.38;;
27670;SDS011;15077;49.704;9.908;2023-05-07T13:42:34;2.03;;;1.50;;
27670;SDS011;15077;49.704;9.908;2023-05-07T13:44:59;2.15;;;1.75;;
27670;SDS011;15077;49.704;9.908;2023-05-07T13:47:25;2.28;;;2.00;;
27670;SDS011;15077;49.704;9.908;2023-05-07T13:49:51;2.00;;;1.58;;
27670;SDS011;15077;49.704;9.908;2023-05-07T13:52:17;2.70;;;1.50;;
27670;SDS011;15077;49.704;9.908;2023-05-07T13:54:44;2.13;;;1.80;;
27670;SDS011;15077;49.704;9.908;2023-05-07T13:57:10;2.30;;;1.95;;
27670;SDS011;15077;49.704;9.908;2023-05-07T13:59:35;3.33;;;1.67;;
27670;SDS011;15077;49.704;9.908;2023-05-07T14:02:01;1.73;;;1.38;;
27670;SDS011;15077;49.704;9.908;2023-05-07T14:04:27;2.10;;;1.90;;
27670;SDS011;15077;49.704;9.908;2023-05-07T14:06:52;2.05;;;1.70;;
27670;SDS011;15077;49.704;9.908;2023-05-07T14:09:18;2.38;;;1.70;;
27670;SDS011;15077;49.704;9.908;2023-05-07T14:11:44;1.67;;;1.50;;
27670;SDS011;15077;49.704;9.908;2023-05-07T14:14:11;2.50;;;2.00;;
27670;SDS011;15077;49.704;9.908;2023-05-07T14:16:36;3.30;;;1.70;;
27670;SDS011;15077;49.704;9.908;2023-05-07T14:19:02;1.70;;;1.60;;
27670;SDS011;15077;49.704;9.908;2023-05-07T14:21:28;2.25;;;1.77;;
27670;SDS011;15077;49.704;9.908;2023-05-07T14:23:55;2.60;;;1.60;;
27670;SDS011;15077;49.704;9.908;2023-05-07T14:26:21;2.40;;;1.80;;
27670;SDS011;15077;49.704;9.908;2023-05-07T14:28:48;1.73;;;1.35;;
27670;SDS011;15077;49.704;9.908;2023-05-07T14:31:14;1.60;;;1.17;;
27670;SDS011;15077;49.704;9.908;2023-05-07T14:33:40;2.22;;;1.70;;
27670;SDS011;15077;49.704;9.908;2023-05-07T14:36:05;2.05;;;1.60;;
27670;SDS011;15077;49.704;9.908;2023-05-07T14:38:31;1.92;;;1.58;;
27670;SDS011;15077;49.704;9.908;2023-05-07T14:40:58;3.22;;;2.08;;
27670;SDS011;15077;49.704;9.908;2023-05-07T14:43:24;2.35;;;2.13;;
27670;SDS011;15077;49.704;9.908;2023-05-07T14:45:49;2.40;;;2.03;;
27670;SDS011;15077;49.704;9.908;2023-05-07T14:48:15;2.40;;;2.20;;
27670;SDS011;15077;49.704;9.908;2023-05-07T14:50:41;1.67;;;1.52;;
27670;SDS011;15077;49.704;9.908;2023-05-07T14:53:07;2.70;;;1.73;;
27670;SDS011;15077;49.704;9.908;2023-05-07T14:55:33;2.33;;;1.50;;
27670;SDS011;15077;49.704;9.908;2023-05-07T14:58:00;1.80;;;1.30;;
27670;SDS011;15077;49.704;9.908;2023-05-07T15:00:26;2.25;;;1.58;;
27670;SDS011;15077;49.704;9.908;2023-05-07T15:02:53;2.10;;;1.67;;
27670;SDS011;15077;49.704;9.908;2023-05-07T15:05:27;2.00;;;1.65;;
27670;SDS011;15077;49.704;9.908;2023-05-07T15:07:52;2.65;;;2.10;;
27670;SDS011;15077;49.704;9.908;2023-05-07T15:10:18;2.83;;;2.28;;